createdAt,value
2018-09-19T00:01:18.262Z,82.40
2018-09-19T00:06:21.346Z,81.20
2018-09-19T00:11:24.392Z,80.80
2018-09-19T00:16:27.457Z,78.10
2018-09-19T00:21:30.524Z,80.60
2018-09-19T00:26:33.603Z,82.40
2018-09-19T00:31:36.665Z,80.70
2018-09-19T00:36:39.731Z,85.80
2018-09-19T00:41:42.809Z,85.10
2018-09-19T00:46:45.859Z,87.90
2018-09-19T00:51:49.923Z,89.10
2018-09-19T00:56:52.977Z,90.70
2018-09-19T01:01:56.058Z,90.80
2018-09-19T01:06:59.124Z,91.70
2018-09-19T01:12:02.193Z,91.30
2018-09-19T01:17:05.249Z,91.30
2018-09-19T01:22:08.299Z,90.90
2018-09-19T01:32:14.288Z,90.60
2018-09-19T01:37:17.343Z,90.50
2018-09-19T01:58:44.478Z,91.20
2018-09-19T02:03:47.571Z,91.80
2018-09-19T02:08:50.761Z,91.80
2018-09-19T02:13:53.794Z,92.20
2018-09-19T02:18:56.891Z,91.90
2018-09-19T02:24:00.001Z,92.30
2018-09-19T02:29:03.089Z,92.20
2018-09-19T02:34:06.385Z,92.30
2018-09-19T02:39:10.075Z,92.50
2018-09-19T02:44:13.158Z,93.00
2018-09-19T02:49:16.268Z,92.40
2018-09-19T02:54:19.333Z,92.60
2018-09-19T02:59:22.406Z,92.50
2018-09-19T03:04:25.489Z,92.70
2018-09-19T03:09:28.590Z,92.70
2018-09-19T03:14:31.660Z,92.80
2018-09-19T03:19:34.739Z,92.80
2018-09-19T03:24:37.821Z,92.70
2018-09-19T03:29:40.897Z,93.60
2018-09-19T03:51:09.015Z,92.80
2018-09-19T03:56:12.121Z,93.00
2018-09-19T04:01:15.228Z,93.60
2018-09-19T04:06:18.318Z,93.30
2018-09-19T04:11:21.398Z,94.00
2018-09-19T04:16:24.471Z,93.60
2018-09-19T04:21:27.570Z,93.50
2018-09-19T04:26:30.693Z,93.60
2018-09-19T04:31:33.796Z,94.40
2018-09-19T04:36:36.868Z,94.10
2018-09-19T04:41:39.959Z,94.10
2018-09-19T04:46:43.050Z,93.60
2018-09-19T04:51:46.133Z,94.00
2018-09-19T04:56:49.281Z,94.40
2018-09-19T05:01:52.380Z,94.40
2018-09-19T05:06:55.558Z,95.20
2018-09-19T05:11:58.967Z,95.20
2018-09-19T05:17:02.077Z,94.40
2018-09-19T05:22:05.416Z,94.70
2018-09-19T05:27:08.530Z,95.10
2018-09-19T05:32:11.650Z,95.20
2018-09-19T05:53:39.215Z,97.30
2018-09-19T05:58:42.368Z,97.00
2018-09-19T06:03:45.453Z,97.60
2018-09-19T06:08:48.552Z,97.50
2018-09-19T06:13:51.651Z,97.60
2018-09-19T06:18:54.788Z,97.90
2018-09-19T06:23:57.885Z,97.70
2018-09-19T06:29:01.005Z,98.10
2018-09-19T06:50:27.125Z,99.70
2018-09-19T06:55:30.230Z,99.80
2018-09-19T07:00:33.320Z,99.70
2018-09-19T07:05:36.423Z,99.30
2018-09-19T07:10:39.508Z,99.90
2018-09-19T07:15:42.943Z,99.90
2018-09-19T07:20:46.045Z,99.50
2018-09-19T07:25:49.141Z,99.90
2018-09-19T07:30:52.354Z,99.90
2018-09-19T07:35:55.405Z,99.90
2018-09-19T07:40:58.493Z,99.40
2018-09-19T07:46:01.599Z,99.30
2018-09-19T07:51:04.705Z,98.60
2018-09-19T07:56:07.808Z,98.20
2018-09-19T08:17:36.326Z,97.00
2018-09-19T08:22:39.452Z,96.60
2018-09-19T08:27:42.505Z,95.90
2018-09-19T08:32:45.581Z,95.40
2018-09-19T08:37:48.654Z,95.10
2018-09-19T08:42:51.737Z,94.80
2018-09-19T08:47:54.825Z,94.50
2018-09-19T08:52:57.912Z,94.40
2018-09-19T08:58:01.355Z,93.90
2018-09-19T09:03:04.498Z,94.10
2018-09-19T09:08:07.833Z,93.90
2018-09-19T09:13:10.933Z,93.90
2018-09-19T09:18:14.007Z,93.10
2018-09-19T09:23:17.085Z,92.20
2018-09-19T09:28:20.191Z,91.20
2018-09-19T09:33:23.266Z,90.00
2018-09-19T09:38:26.362Z,90.00
2018-09-19T09:43:29.490Z,89.40
2018-09-19T09:48:32.535Z,88.30
2018-09-19T09:53:35.623Z,84.80
2018-09-19T10:15:03.451Z,80.60
2018-09-19T10:20:06.520Z,78.10
2018-09-19T10:25:09.619Z,76.90
2018-09-19T10:30:12.696Z,77.90
2018-09-19T10:35:15.810Z,74.50
2018-09-19T10:40:18.886Z,74.70
2018-09-19T10:45:21.960Z,72.80
2018-09-19T10:50:25.032Z,71.20
2018-09-19T10:55:28.105Z,72.20
2018-09-19T11:00:31.187Z,70.10
2018-09-19T11:21:58.003Z,70.50
2018-09-19T11:43:25.863Z,65.50
2018-09-19T11:48:29.012Z,64.40
2018-09-19T11:53:32.104Z,64.90
2018-09-19T11:58:35.208Z,65.00
2018-09-19T12:03:38.299Z,59.80
2018-09-19T12:08:41.501Z,60.70
2018-09-19T12:13:44.618Z,58.90
2018-09-19T12:18:47.741Z,61.30
2018-09-19T12:23:50.833Z,60.10
2018-09-19T12:28:53.969Z,60.40
2018-09-19T12:33:57.040Z,60.00
2018-09-19T12:39:00.141Z,59.50
2018-09-19T12:44:03.234Z,59.50
2018-09-19T12:49:06.329Z,58.90
2018-09-19T12:54:09.405Z,57.80
2018-09-19T12:59:12.467Z,56.20
2018-09-19T13:04:15.564Z,57.00
2018-09-19T13:09:18.660Z,57.30
2018-09-19T13:14:21.760Z,56.50
2018-09-19T13:19:24.832Z,54.80
2018-09-19T13:24:27.919Z,55.70
2018-09-19T13:29:31.011Z,56.40
2018-09-19T13:34:34.095Z,56.20
2018-09-19T13:39:37.172Z,55.30
2018-09-19T13:44:40.316Z,57.10
2018-09-19T13:49:46.886Z,55.80
2018-09-19T13:54:49.973Z,55.80
2018-09-19T13:59:53.058Z,53.80
2018-09-19T14:04:56.145Z,54.00
2018-09-19T14:09:59.259Z,55.00
2018-09-19T14:15:02.349Z,54.30
2018-09-19T14:20:05.437Z,53.60
2018-09-19T14:25:08.526Z,54.50
2018-09-19T14:30:11.591Z,54.40
2018-09-19T14:35:14.694Z,54.90
2018-09-19T14:40:17.817Z,54.30
2018-09-19T14:45:20.896Z,54.60
2018-09-19T14:50:23.993Z,52.20
2018-09-19T14:55:27.102Z,53.60
2018-09-19T15:00:30.208Z,52.30
2018-09-19T15:05:33.325Z,53.40
2018-09-19T15:27:00.658Z,53.20
2018-09-19T15:32:03.765Z,53.60
2018-09-19T15:37:07.144Z,53.30
2018-09-19T15:42:10.265Z,53.40
2018-09-19T15:47:13.374Z,53.90
2018-09-19T15:52:16.537Z,53.40
2018-09-19T15:57:19.691Z,54.20
2018-09-19T16:02:22.759Z,54.30
2018-09-19T16:07:25.897Z,54.30
2018-09-19T16:12:29.897Z,54.80
2018-09-19T16:17:33.037Z,55.00
2018-09-19T16:39:00.330Z,55.70
2018-09-19T16:44:03.445Z,55.90
2018-09-19T16:49:07.240Z,56.20
2018-09-19T17:10:34.273Z,58.60
2018-09-19T17:15:37.500Z,59.40
2018-09-19T17:20:40.568Z,59.40
2018-09-19T17:25:43.768Z,59.90
2018-09-19T17:47:12.066Z,62.80
2018-09-19T17:52:15.697Z,63.80
2018-09-19T17:57:19.142Z,64.80
2018-09-19T18:18:46.284Z,67.00
2018-09-19T18:23:49.700Z,66.60
2018-09-19T18:45:18.515Z,68.30
2018-09-19T18:50:21.861Z,69.30
2018-09-19T18:55:25.052Z,69.70
2018-09-19T19:16:52.898Z,70.80
2018-09-19T19:21:56.024Z,69.80
2018-09-19T19:26:59.254Z,70.40
2018-09-19T19:32:02.420Z,72.90
2018-09-19T19:37:05.901Z,72.60
2018-09-19T19:58:33.441Z,72.80
2018-09-19T20:03:36.549Z,72.40
2018-09-19T20:08:39.664Z,73.60
2018-09-19T20:30:07.217Z,74.40
2018-09-19T20:35:10.313Z,75.40
2018-09-19T20:40:13.407Z,75.70
2018-09-19T20:45:16.546Z,77.00
2018-09-19T20:50:19.638Z,76.60
2018-09-19T20:55:22.752Z,76.80
2018-09-19T21:00:25.846Z,78.60
2018-09-19T21:05:28.952Z,79.30
2018-09-19T21:10:32.056Z,79.00
2018-09-19T21:15:35.176Z,78.60
2018-09-19T21:20:38.539Z,79.90
2018-09-19T21:25:41.616Z,80.20
2018-09-19T21:30:44.707Z,80.20
2018-09-19T21:35:47.819Z,81.20
2018-09-19T21:40:50.955Z,82.70
2018-09-19T21:45:53.976Z,82.00
2018-09-19T21:50:57.098Z,82.70
2018-09-19T21:56:00.205Z,82.90
2018-09-19T22:01:09.147Z,83.40
2018-09-19T22:06:12.220Z,83.40
2018-09-19T22:11:15.535Z,83.70
2018-09-19T22:16:18.750Z,83.90
2018-09-19T22:21:21.841Z,84.80
2018-09-19T22:26:24.980Z,84.40
2018-09-19T22:31:28.090Z,84.60
2018-09-19T22:36:31.369Z,85.80
2018-09-19T22:41:39.413Z,85.40
2018-09-19T22:46:42.852Z,86.00
2018-09-19T22:51:46.017Z,85.70
2018-09-19T22:56:49.106Z,87.60
2018-09-19T23:01:52.394Z,86.90
2018-09-19T23:06:55.498Z,88.00
2018-09-19T23:11:58.613Z,87.40
2018-09-19T23:17:01.703Z,87.80
2018-09-19T23:22:04.804Z,86.90
2018-09-19T23:27:07.904Z,88.10
2018-09-19T23:32:11.018Z,89.30
2018-09-19T23:37:14.114Z,89.10
2018-09-19T23:42:17.217Z,89.30
2018-09-19T23:47:20.321Z,89.80
2018-09-19T23:52:23.430Z,90.10
2018-09-19T23:57:26.539Z,90.00
